Time;durP1;ratioP1;P1;durP2;ratioP2;P2;SDS_P1;SDS_P2;PMS_P1;PMS_P2;Temp;Humidity;BMP_temperature;BMP_pressure;BME280_temperature;BME280_humidity;BME280_pressure;Samples;Min_cycle;Max_cycle;Signal;HPM_P1;HPM_P2
2023/09/30 00:00:46;;;;;;;26.13;10.90;;;12.20;99.90;;;;;;5035823;28;20403;-76
2023/09/30 00:03:12;;;;;;;28.67;11.00;;;12.00;99.90;;;;;;5035268;28;20445;-76
2023/09/30 00:05:38;;;;;;;24.20;10.10;;;12.30;99.90;;;;;;5034638;28;20379;-77
2023/09/30 00:08:06;;;;;;;28.10;10.40;;;12.20;99.90;;;;;;5034026;28;20384;-77
2023/09/30 00:10:32;;;;;;;23.88;9.70;;;12.50;99.90;;;;;;5034190;28;20395;-76
2023/09/30 00:12:58;;;;;;;28.30;9.43;;;12.20;99.90;;;;;;5033713;28;20744;-76
2023/09/30 00:15:24;;;;;;;25.00;9.88;;;12.00;99.90;;;;;;5015839;28;20387;-76
2023/09/30 00:17:50;;;;;;;22.75;9.45;;;12.20;99.90;;;;;;5034019;28;20384;-77
2023/09/30 00:20:19;;;;;;;27.70;9.82;;;12.30;99.90;;;;;;5034340;28;20383;-77
2023/09/30 00:22:44;;;;;;;31.77;10.68;;;11.80;99.90;;;;;;5015973;28;20399;-76
2023/09/30 00:25:10;;;;;;;24.13;11.20;;;11.80;99.90;;;;;;5015829;28;20388;-76
2023/09/30 00:27:37;;;;;;;26.05;11.00;;;12.40;99.90;;;;;;5033489;28;20378;-77
2023/09/30 00:30:03;;;;;;;22.05;9.63;;;12.10;99.90;;;;;;5033895;28;20875;-76
2023/09/30 00:32:29;;;;;;;28.77;10.50;;;12.30;99.90;;;;;;5015315;28;20383;-76
2023/09/30 00:34:54;;;;;;;25.30;9.80;;;12.20;99.90;;;;;;5034236;28;20383;-77
2023/09/30 00:37:20;;;;;;;26.73;9.68;;;12.60;99.90;;;;;;5034567;28;20387;-76
2023/09/30 00:39:46;;;;;;;27.02;10.20;;;12.00;99.90;;;;;;5034197;28;20493;-78
2023/09/30 00:42:12;;;;;;;30.67;9.57;;;12.40;99.90;;;;;;5034023;28;20458;-76
2023/09/30 00:44:37;;;;;;;27.67;9.70;;;12.20;99.90;;;;;;5036172;28;20436;-76
2023/09/30 00:47:04;;;;;;;19.92;8.32;;;12.50;99.90;;;;;;5034347;28;20379;-75
2023/09/30 00:49:29;;;;;;;22.38;8.55;;;13.00;99.90;;;;;;5034734;28;20466;-75
2023/09/30 00:51:56;;;;;;;20.25;8.35;;;12.30;99.90;;;;;;5019902;28;20422;-77
2023/09/30 00:54:24;;;;;;;22.43;8.20;;;12.10;99.90;;;;;;5036882;28;20394;-76
2023/09/30 00:56:52;;;;;;;25.75;8.90;;;12.00;99.90;;;;;;5034421;28;20382;-75
2023/09/30 00:59:19;;;;;;;21.13;8.07;;;12.40;99.90;;;;;;5033517;28;20409;-75
2023/09/30 01:01:45;;;;;;;22.90;8.40;;;12.60;99.90;;;;;;5033467;28;20410;-76
2023/09/30 01:04:11;;;;;;;29.80;9.18;;;12.20;99.90;;;;;;5033409;28;20379;-75
2023/09/30 01:06:37;;;;;;;31.20;9.00;;;12.20;99.90;;;;;;5015594;28;20406;-74
2023/09/30 01:09:03;;;;;;;23.27;8.40;;;12.30;99.90;;;;;;5033384;28;20876;-74
2023/09/30 01:11:29;;;;;;;21.23;9.38;;;12.70;99.90;;;;;;5016542;28;20416;-76
2023/09/30 01:13:55;;;;;;;24.58;9.73;;;12.40;99.90;;;;;;5033338;28;20383;-77
2023/09/30 01:16:21;;;;;;;28.90;9.90;;;12.30;99.90;;;;;;5033499;28;20402;-75
2023/09/30 01:18:46;;;;;;;21.92;9.07;;;12.30;99.90;;;;;;5033341;28;20391;-75
2023/09/30 01:21:12;;;;;;;25.90;9.32;;;12.30;99.90;;;;;;5033024;28;20403;-74
2023/09/30 01:23:43;;;;;;;23.45;8.40;;;12.60;99.90;;;;;;5033049;28;20788;-74
2023/09/30 01:26:12;;;;;;;25.10;9.43;;;12.60;99.90;;;;;;5033463;28;20410;-76
2023/09/30 01:28:37;;;;;;;26.73;9.18;;;12.20;99.90;;;;;;5033311;28;20394;-77
2023/09/30 01:31:04;;;;;;;34.58;10.50;;;12.90;99.90;;;;;;5032610;28;20830;-75
2023/09/30 01:33:29;;;;;;;29.45;10.40;;;12.80;99.90;;;;;;5033226;28;20406;-75
2023/09/30 01:35:55;;;;;;;31.93;9.47;;;;;;;;;;5033095;28;20779;-74
2023/09/30 01:38:21;;;;;;;27.37;10.40;;;12.50;99.90;;;;;;5032491;28;20816;-74
2023/09/30 01:40:47;;;;;;;23.50;9.47;;;12.60;99.90;;;;;;5032769;28;20410;-75
2023/09/30 01:43:15;;;;;;;26.80;10.37;;;12.40;99.90;;;;;;5032643;28;20432;-76
2023/09/30 01:45:42;;;;;;;34.35;10.70;;;12.50;99.90;;;;;;5032668;28;20879;-75
2023/09/30 01:48:10;;;;;;;25.95;10.90;;;12.80;99.90;;;;;;5031975;28;20740;-75
2023/09/30 01:50:37;;;;;;;27.95;10.40;;;13.20;99.90;;;;;;5014179;28;20478;-75
2023/09/30 01:53:03;;;;;;;24.40;10.30;;;13.00;99.90;;;;;;5031968;28;20386;-75
2023/09/30 01:55:29;;;;;;;31.48;10.13;;;12.50;99.90;;;;;;5031501;28;20391;-78
2023/09/30 01:57:54;;;;;;;22.50;9.00;;;13.00;99.90;;;;;;5031746;28;20718;-75
2023/09/30 02:00:20;;;;;;;29.98;9.95;;;12.80;99.90;;;;;;5031671;28;20749;-75
2023/09/30 02:02:45;;;;;;;27.40;9.48;;;12.30;99.90;;;;;;5013385;28;20674;-73
2023/09/30 02:05:11;;;;;;;29.20;9.40;;;12.10;99.90;;;;;;5032587;28;20398;-75
2023/09/30 02:07:38;;;;;;;25.57;9.50;;;12.50;99.90;;;;;;5031353;28;20387;-75
2023/09/30 02:10:03;;;;;;;32.08;9.43;;;12.10;99.90;;;;;;5031564;28;20391;-75
2023/09/30 02:12:29;;;;;;;30.50;11.50;;;12.10;99.90;;;;;;5031129;28;20435;-76
2023/09/30 02:14:55;;;;;;;27.33;10.95;;;12.20;99.90;;;;;;5030979;28;20397;-73
2023/09/30 02:17:20;;;;;;;29.42;11.10;;;12.20;99.90;;;;;;5013414;28;20791;-74
2023/09/30 02:19:46;;;;;;;26.13;11.30;;;12.20;99.90;;;;;;5031376;28;20395;-74
2023/09/30 02:22:12;;;;;;;27.75;12.27;;;12.10;99.90;;;;;;5031065;28;20418;-75
2023/09/30 02:24:40;;;;;;;25.48;10.65;;;12.10;99.90;;;;;;5031598;28;20813;-75
2023/09/30 02:27:05;;;;;;;25.85;11.05;;;12.00;99.90;;;;;;5031649;28;20388;-74
2023/09/30 02:29:31;;;;;;;29.10;11.13;;;12.10;99.90;;;;;;5031371;28;20383;-76
2023/09/30 02:31:56;;;;;;;33.63;11.53;;;12.00;99.90;;;;;;5031125;28;20403;-76
2023/09/30 02:34:23;;;;;;;36.50;12.17;;;12.00;99.90;;;;;;5032275;28;20394;-76
2023/09/30 02:36:49;;;;;;;28.97;11.23;;;12.00;99.90;;;;;;5031339;28;20478;-77
2023/09/30 02:39:16;;;;;;;27.83;12.00;;;12.00;99.90;;;;;;5031666;28;20472;-76
2023/09/30 02:41:42;;;;;;;28.13;11.32;;;11.90;99.90;;;;;;5034757;28;20421;-75
2023/09/30 02:44:07;;;;;;;29.13;12.23;;;11.90;99.90;;;;;;5041349;28;20375;-75
2023/09/30 02:46:33;;;;;;;28.30;12.23;;;11.80;99.90;;;;;;5050566;28;20379;-78
2023/09/30 02:49:00;;;;;;;33.10;12.80;;;11.80;99.90;;;;;;5036464;28;20450;-74
2023/09/30 02:51:26;;;;;;;39.20;11.27;;;11.80;99.90;;;;;;5031521;28;20409;-75
2023/09/30 02:53:52;;;;;;;35.35;11.20;;;11.90;99.90;;;;;;5014203;28;20426;-74
2023/09/30 02:56:19;;;;;;;29.30;11.68;;;11.90;99.90;;;;;;5031598;28;20437;-75
2023/09/30 02:58:45;;;;;;;27.42;12.30;;;11.90;99.90;;;;;;5032055;28;20414;-76
2023/09/30 03:01:16;;;;;;;34.83;12.32;;;11.90;99.90;;;;;;5031842;28;20530;-74
2023/09/30 03:03:44;;;;;;;33.53;11.82;;;11.90;99.90;;;;;;5032367;28;20414;-75
2023/09/30 03:06:10;;;;;;;31.27;10.93;;;12.10;99.90;;;;;;5014362;28;20390;-74
2023/09/30 03:08:36;;;;;;;32.90;12.03;;;12.10;99.90;;;;;;5032878;28;20475;-75
2023/09/30 03:11:02;;;;;;;28.35;11.38;;;12.00;99.90;;;;;;5030705;28;20438;-74
2023/09/30 03:13:27;;;;;;;25.88;11.70;;;11.90;99.90;;;;;;5030238;28;20468;-74
2023/09/30 03:15:53;;;;;;;34.55;11.65;;;11.90;99.90;;;;;;5030515;28;20391;-73
2023/09/30 03:18:26;;;;;;;31.23;12.50;;;11.90;99.90;;;;;;5012780;28;20737;-75
2023/09/30 03:20:56;;;;;;;27.77;11.70;;;11.80;99.90;;;;;;5030523;28;20407;-76
2023/09/30 03:23:25;;;;;;;33.38;12.02;;;11.80;99.90;;;;;;5031530;28;20398;-77
2023/09/30 03:25:50;;;;;;;29.48;11.73;;;11.80;99.90;;;;;;5031986;28;20392;-77
2023/09/30 03:28:16;;;;;;;32.13;12.60;;;11.80;99.90;;;;;;5034613;28;20380;-77
2023/09/30 03:30:45;;;;;;;37.00;13.10;;;11.80;99.90;;;;;;5034599;28;20832;-77
2023/09/30 03:33:12;;;;;;;31.85;13.32;;;11.70;99.90;;;;;;5034549;28;20462;-77
2023/09/30 03:35:37;;;;;;;31.13;12.38;;;11.70;99.90;;;;;;5017024;28;20387;-77
2023/09/30 03:38:04;;;;;;;34.38;12.77;;;11.70;99.90;;;;;;5034549;28;20474;-76
2023/09/30 03:40:33;;;;;;;34.75;13.10;;;11.80;99.90;;;;;;5034232;28;20395;-77
2023/09/30 03:42:59;;;;;;;34.83;14.00;;;11.90;99.90;;;;;;5034180;28;20387;-76
2023/09/30 03:45:24;;;;;;;31.90;12.30;;;11.80;99.90;;;;;;5034177;28;20954;-77
2023/09/30 03:47:51;;;;;;;31.23;12.57;;;11.80;99.90;;;;;;5034529;28;20386;-75
2023/09/30 03:50:17;;;;;;;27.13;12.37;;;11.80;99.90;;;;;;5035867;28;20421;-76
2023/09/30 03:52:44;;;;;;;31.07;12.17;;;11.70;99.90;;;;;;5035925;28;20387;-76
2023/09/30 03:55:14;;;;;;;30.50;12.82;;;11.70;99.90;;;;;;5034641;28;20432;-75
2023/09/30 03:57:40;;;;;;;44.15;14.13;;;11.70;99.90;;;;;;5033680;28;20448;-75
2023/09/30 04:00:06;;;;;;;31.52;13.30;;;11.70;99.90;;;;;;5034217;28;20408;-74
2023/09/30 04:02:35;;;;;;;29.55;12.40;;;11.70;99.90;;;;;;5033386;28;20406;-78
2023/09/30 04:05:05;;;;;;;32.97;13.15;;;11.70;99.90;;;;;;5033610;28;20383;-76
2023/09/30 04:07:31;;;;;;;30.13;12.75;;;11.70;99.90;;;;;;5033779;28;20388;-76
2023/09/30 04:09:56;;;;;;;37.10;13.07;;;11.70;99.90;;;;;;5034166;28;20379;-77
2023/09/30 04:12:25;;;;;;;31.63;12.63;;;11.80;99.90;;;;;;5033239;28;20813;-77
2023/09/30 04:14:52;;;;;;;38.03;14.07;;;11.80;99.90;;;;;;5034168;28;20413;-76
2023/09/30 04:17:17;;;;;;;36.42;13.50;;;11.80;99.90;;;;;;5033803;28;20387;-75
2023/09/30 04:19:43;;;;;;;37.37;13.00;;;11.80;99.90;;;;;;5036974;28;20562;-76
2023/09/30 04:22:08;;;;;;;29.42;11.93;;;11.70;99.90;;;;;;5034864;28;20442;-75
2023/09/30 04:24:34;;;;;;;37.03;13.23;;;11.70;99.90;;;;;;5033246;28;20466;-75
2023/09/30 04:27:03;;;;;;;34.35;13.02;;;11.70;99.90;;;;;;5033683;28;20783;-76
2023/09/30 04:29:29;;;;;;;34.47;13.30;;;11.60;99.90;;;;;;5033779;28;20415;-76
2023/09/30 04:31:58;;;;;;;29.67;12.98;;;11.60;99.90;;;;;;5033439;28;20390;-78
2023/09/30 04:34:24;;;;;;;33.83;12.63;;;11.60;99.90;;;;;;5048145;28;20460;-75
2023/09/30 04:36:49;;;;;;;32.33;12.63;;;11.60;99.90;;;;;;5036415;28;20399;-75
2023/09/30 04:39:15;;;;;;;28.50;13.10;;;11.50;99.90;;;;;;5037662;28;20376;-73
2023/09/30 04:41:41;;;;;;;31.70;12.23;;;11.50;99.90;;;;;;5049504;28;20419;-76
2023/09/30 04:44:09;;;;;;;30.45;12.95;;;11.50;99.90;;;;;;5021344;28;20743;-75
2023/09/30 04:46:36;;;;;;;34.45;13.05;;;11.50;99.90;;;;;;5034078;28;20751;-73
2023/09/30 04:49:02;;;;;;;31.17;12.37;;;11.50;99.90;;;;;;5051646;28;20710;-75
2023/09/30 04:51:28;;;;;;;28.98;12.65;;;11.50;99.90;;;;;;5052254;28;20387;-76
2023/09/30 04:53:55;;;;;;;33.47;12.50;;;11.40;99.90;;;;;;5052648;28;20391;-74
2023/09/30 04:56:20;;;;;;;26.38;12.07;;;11.30;99.90;;;;;;5052526;28;20379;-74
2023/09/30 04:58:46;;;;;;;34.10;12.18;;;11.40;99.90;;;;;;5052008;28;20393;-74
2023/09/30 05:01:12;;;;;;;32.83;12.55;;;11.30;99.90;;;;;;5051557;28;20801;-75
2023/09/30 05:03:38;;;;;;;30.83;13.00;;;11.30;99.90;;;;;;5051470;28;20379;-75
2023/09/30 05:06:03;;;;;;;29.60;12.53;;;11.30;99.90;;;;;;5034558;28;20403;-75
2023/09/30 05:08:30;;;;;;;34.03;12.57;;;11.30;99.90;;;;;;5049780;28;20395;-75
2023/09/30 05:10:56;;;;;;;30.03;11.83;;;11.30;99.90;;;;;;5051812;28;20473;-74
2023/09/30 05:13:25;;;;;;;29.02;12.25;;;11.20;99.90;;;;;;5034735;28;20375;-75
2023/09/30 05:15:52;;;;;;;35.22;12.80;;;11.20;99.90;;;;;;5051622;28;20387;-74
2023/09/30 05:18:18;;;;;;;29.15;12.68;;;11.10;99.90;;;;;;5053148;28;20458;-75
2023/09/30 05:20:44;;;;;;;29.83;12.75;;;11.10;99.90;;;;;;5035053;28;20454;-74
2023/09/30 05:23:12;;;;;;;25.93;11.80;;;11.10;99.90;;;;;;5040905;28;20457;-75
2023/09/30 05:25:39;;;;;;;33.20;11.50;;;11.10;99.90;;;;;;5037532;28;20387;-76
2023/09/30 05:28:06;;;;;;;32.13;12.43;;;11.00;99.90;;;;;;5015318;28;20960;-76
2023/09/30 05:30:33;;;;;;;28.93;12.67;;;11.00;99.90;;;;;;5033402;28;20452;-75
2023/09/30 05:32:59;;;;;;;33.90;13.10;;;11.00;99.90;;;;;;5032597;28;20399;-77
2023/09/30 05:35:25;;;;;;;34.90;13.40;;;11.00;99.90;;;;;;5033054;28;20799;-75
2023/09/30 05:37:53;;;;;;;35.73;13.57;;;10.90;99.90;;;;;;5033953;28;20380;-77
2023/09/30 05:40:23;;;;;;;31.60;12.30;;;11.00;99.90;;;;;;5032834;28;20397;-77
2023/09/30 05:42:49;;;;;;;40.47;13.07;;;11.10;99.90;;;;;;5034181;28;20428;-77
2023/09/30 05:45:15;;;;;;;33.15;13.27;;;11.10;99.90;;;;;;5014206;28;20449;-77
2023/09/30 05:47:41;;;;;;;32.15;12.23;;;11.10;99.90;;;;;;5034168;28;20403;-75
2023/09/30 05:50:08;;;;;;;36.25;13.43;;;11.10;99.90;;;;;;5032460;28;20391;-77
2023/09/30 05:52:34;;;;;;;34.33;13.00;;;11.20;99.90;;;;;;5030723;28;20760;-75
2023/09/30 05:55:02;;;;;;;36.63;13.93;;;11.20;99.90;;;;;;5029107;28;20411;-76
2023/09/30 05:57:28;;;;;;;45.95;15.02;;;11.20;99.90;;;;;;5021473;28;20405;-74
2023/09/30 05:59:54;;;;;;;36.00;13.70;;;11.20;99.90;;;;;;5010335;28;21033;-77
2023/09/30 06:02:19;;;;;;;35.70;14.47;;;11.20;99.90;;;;;;5026636;28;20472;-75
2023/09/30 06:04:46;;;;;;;43.37;16.13;;;11.30;99.90;;;;;;5028494;28;20878;-76
2023/09/30 06:07:12;;;;;;;37.28;14.18;;;11.40;99.90;;;;;;5030784;28;20868;-76
2023/09/30 06:09:37;;;;;;;36.83;15.75;;;11.40;99.90;;;;;;5028342;28;20640;-76
2023/09/30 06:12:06;;;;;;;39.30;15.55;;;11.50;99.90;;;;;;5011554;28;20417;-77
2023/09/30 06:14:32;;;;;;;41.05;15.68;;;11.50;99.90;;;;;;5029533;28;20397;-77
2023/09/30 06:16:59;;;;;;;40.35;15.73;;;11.50;99.90;;;;;;5029284;28;20423;-77
2023/09/30 06:19:25;;;;;;;40.42;15.63;;;11.60;99.90;;;;;;5029693;28;20399;-75
2023/09/30 06:21:52;;;;;;;40.17;16.50;;;11.60;99.90;;;;;;5028600;28;20867;-77
2023/09/30 06:24:19;;;;;;;39.13;16.20;;;11.70;99.90;;;;;;5030458;28;20465;-76
2023/09/30 06:26:45;;;;;;;42.15;16.27;;;11.70;99.90;;;;;;5011625;28;20449;-76
2023/09/30 06:29:11;;;;;;;37.80;17.08;;;11.80;99.90;;;;;;5029352;28;20456;-75
2023/09/30 06:31:37;;;;;;;43.40;17.50;;;11.80;99.90;;;;;;5028718;28;20429;-76
2023/09/30 06:34:04;;;;;;;44.53;17.60;;;11.90;99.90;;;;;;5029621;28;20875;-76
2023/09/30 06:36:29;;;;;;;41.25;17.90;;;11.90;99.90;;;;;;5029762;28;20383;-75
2023/09/30 06:38:55;;;;;;;41.77;19.17;;;12.00;99.90;;;;;;5028721;28;20891;-74
2023/09/30 06:41:20;;;;;;;42.43;18.10;;;12.10;99.90;;;;;;5027914;28;20892;-75
2023/09/30 06:43:46;;;;;;;41.30;17.80;;;12.10;99.90;;;;;;5028600;28;20470;-75
2023/09/30 06:46:13;;;;;;;49.92;19.40;;;12.20;99.90;;;;;;5029083;28;20379;-76
2023/09/30 06:48:40;;;;;;;47.08;19.95;;;12.30;99.90;;;;;;5028360;28;20395;-75
2023/09/30 06:51:06;;;;;;;49.13;19.65;;;12.30;99.90;;;;;;5027984;28;20441;-76
2023/09/30 06:53:31;;;;;;;45.83;21.50;;;12.40;99.90;;;;;;5028026;28;20907;-75
2023/09/30 06:55:57;;;;;;;42.87;19.53;;;12.50;99.90;;;;;;5027721;28;20609;-76
2023/09/30 06:58:22;;;;;;;40.47;18.13;;;12.60;99.90;;;;;;5028780;28;20485;-76
2023/09/30 07:00:53;;;;;;;37.40;18.90;;;12.70;99.90;;;;;;5030492;28;20454;-75
2023/09/30 07:03:19;;;;;;;47.60;19.80;;;12.70;99.90;;;;;;5032242;28;20398;-75
2023/09/30 07:05:49;;;;;;;38.22;19.55;;;12.80;99.90;;;;;;5033130;28;20401;-77
2023/09/30 07:08:15;;;;;;;40.67;19.83;;;12.80;99.90;;;;;;5021468;28;20410;-76
2023/09/30 07:10:41;;;;;;;42.17;19.80;;;12.80;99.90;;;;;;5030125;28;20395;-76
2023/09/30 07:13:07;;;;;;;44.40;20.73;;;12.80;99.90;;;;;;5032254;28;20433;-76
2023/09/30 07:15:32;;;;;;;43.78;18.70;;;12.90;99.90;;;;;;5032509;28;20398;-75
2023/09/30 07:17:58;;;;;;;39.40;18.98;;;13.00;99.90;;;;;;5017567;28;20434;-74
2023/09/30 07:20:24;;;;;;;35.88;19.17;;;13.00;99.90;;;;;;5015482;28;20515;-73
2023/09/30 07:22:50;;;;;;;40.95;19.70;;;13.20;99.90;;;;;;5014968;28;20419;-76
2023/09/30 07:25:17;;;;;;;38.70;18.02;;;13.30;99.90;;;;;;5033929;28;20422;-76
2023/09/30 07:27:46;;;;;;;37.00;19.33;;;13.30;99.90;;;;;;5026605;28;20389;-76
2023/09/30 07:30:14;;;;;;;35.00;17.30;;;13.40;99.90;;;;;;5013517;28;20817;-75
2023/09/30 07:32:42;;;;;;;38.40;17.92;;;13.40;99.90;;;;;;5012456;28;20901;-76
2023/09/30 07:35:08;;;;;;;36.35;17.83;;;13.50;99.90;;;;;;5026183;28;20419;-76
2023/09/30 07:37:33;;;;;;;38.95;18.73;;;13.60;99.90;;;;;;5013089;28;20410;-77
2023/09/30 07:39:59;;;;;;;45.75;18.67;;;13.60;99.90;;;;;;5013452;28;20399;-75
2023/09/30 07:42:25;;;;;;;38.38;18.50;;;13.70;99.90;;;;;;5019174;28;20414;-75
2023/09/30 07:44:51;;;;;;;34.22;17.92;;;13.70;99.90;;;;;;5034303;28;20379;-77
2023/09/30 07:47:17;;;;;;;35.53;18.83;;;13.80;99.90;;;;;;5032916;28;20390;-76
2023/09/30 07:49:42;;;;;;;35.80;18.50;;;13.90;99.90;;;;;;5031446;28;20447;-75
2023/09/30 07:52:08;;;;;;;37.30;18.13;;;14.00;99.90;;;;;;5012736;28;20475;-75
2023/09/30 07:54:34;;;;;;;30.05;17.00;;;14.10;99.90;;;;;;5011024;28;20396;-74
2023/09/30 07:57:00;;;;;;;34.30;18.48;;;14.20;99.90;;;;;;5014670;28;20395;-76
2023/09/30 07:59:26;;;;;;;37.45;16.65;;;14.30;99.90;;;;;;5030700;28;20449;-76
2023/09/30 08:01:52;;;;;;;28.15;15.35;;;14.40;99.90;;;;;;5030129;28;20410;-75
2023/09/30 08:04:18;;;;;;;39.75;19.25;;;14.40;99.90;;;;;;5030065;28;20429;-76
2023/09/30 08:06:44;;;;;;;35.40;16.58;;;14.50;96.80;;;;;;5030507;28;20478;-76
2023/09/30 08:09:13;;;;;;;37.45;16.52;;;14.50;95.70;;;;;;5030668;28;20553;-75
2023/09/30 08:11:39;;;;;;;40.15;18.45;;;14.60;95.80;;;;;;5009802;28;20391;-76
2023/09/30 08:14:06;;;;;;;36.22;17.92;;;14.80;92.10;;;;;;5030419;28;20391;-76
2023/09/30 08:16:36;;;;;;;33.38;17.65;;;14.80;90.20;;;;;;5014025;28;20412;-75
2023/09/30 08:19:03;;;;;;;37.00;16.85;;;14.90;89.60;;;;;;5011239;28;20460;-76
2023/09/30 08:21:29;;;;;;;30.10;17.23;;;15.00;92.30;;;;;;5011032;28;20873;-76
2023/09/30 08:23:54;;;;;;;36.72;17.17;;;15.10;91.70;;;;;;5018077;28;20406;-76
2023/09/30 08:26:20;;;;;;;38.40;17.97;;;15.20;90.60;;;;;;5030361;28;20387;-77
2023/09/30 08:28:46;;;;;;;37.33;19.00;;;15.30;88.40;;;;;;5029927;28;20456;-75
2023/09/30 08:31:11;;;;;;;40.47;18.88;;;15.40;86.00;;;;;;5029800;28;20406;-75
2023/09/30 08:33:39;;;;;;;37.80;19.13;;;15.60;82.70;;;;;;5029889;28;20383;-75
2023/09/30 08:36:09;;;;;;;39.38;19.73;;;15.60;81.70;;;;;;5030284;28;20390;-76
2023/09/30 08:38:39;;;;;;;38.60;20.50;;;15.70;78.70;;;;;;5029876;28;20385;-76
2023/09/30 08:41:05;;;;;;;41.67;20.25;;;15.80;77.40;;;;;;5029863;28;20410;-75
2023/09/30 08:43:35;;;;;;;37.58;19.33;;;15.90;76.00;;;;;;5030853;28;20398;-77
2023/09/30 08:46:02;;;;;;;30.17;17.40;;;16.00;76.50;;;;;;5030576;28;20437;-76
2023/09/30 08:48:30;;;;;;;38.72;18.15;;;16.20;71.90;;;;;;5029457;28;20742;-76
2023/09/30 08:50:58;;;;;;;35.42;18.27;;;16.30;72.30;;;;;;5029076;28;20425;-76
2023/09/30 08:53:24;;;;;;;35.13;18.60;;;16.40;68.70;;;;;;5029429;28;20464;-76
2023/09/30 08:55:56;;;;;;;37.92;18.52;;;16.50;69.40;;;;;;5030034;28;20406;-75
2023/09/30 08:58:27;;;;;;;28.80;16.47;;;16.60;68.30;;;;;;5030893;28;20391;-76
2023/09/30 09:00:53;;;;;;;31.60;16.25;;;16.80;64.20;;;;;;5029786;28;22349;-76
2023/09/30 09:03:20;;;;;;;34.10;16.95;;;16.90;63.20;;;;;;5028161;28;20399;-74
2023/09/30 09:05:47;;;;;;;31.27;15.33;;;16.90;63.40;;;;;;5031299;28;20383;-76
2023/09/30 09:08:12;;;;;;;21.52;12.98;;;17.10;59.90;;;;;;5026255;28;20479;-76
2023/09/30 09:10:58;;;;;;;32.87;14.90;;;17.20;59.30;;;;;;5032783;28;20412;-75
2023/09/30 09:13:27;;;;;;;25.52;14.52;;;17.20;61.30;;;;;;5032538;28;20808;-75
2023/09/30 09:16:09;;;;;;;28.95;14.70;;;17.30;58.20;;;;;;5032146;28;20426;-76
2023/09/30 09:18:38;;;;;;;33.47;15.10;;;17.50;56.90;;;;;;5034489;28;20486;-77
2023/09/30 09:21:13;;;;;;;27.95;14.57;;;17.50;56.90;;;;;;5032728;28;20407;-75
2023/09/30 09:23:40;;;;;;;27.88;13.90;;;17.60;57.70;;;;;;5075919;22;20436;-71
2023/09/30 09:26:07;;;;;;;31.37;14.50;;;17.70;54.80;;;;;;5063753;28;20374;-72
2023/09/30 09:28:38;;;;;;;28.98;14.20;;;17.70;52.30;;;;;;5064758;28;20906;-70
2023/09/30 09:31:20;;;;;;;26.08;14.90;;;17.80;53.10;;;;;;5064698;28;20389;-72
2023/09/30 09:33:46;;;;;;;22.98;14.57;;;17.90;52.80;;;;;;5064106;28;20393;-71
2023/09/30 09:36:13;;;;;;;28.87;14.00;;;18.10;52.00;;;;;;5065661;28;20392;-72
2023/09/30 09:38:49;;;;;;;28.85;12.60;;;18.40;47.80;;;;;;5063990;28;20389;-71
2023/09/30 09:41:16;;;;;;;23.27;11.90;;;18.60;46.50;;;;;;5063595;28;20397;-72
2023/09/30 09:43:43;;;;;;;24.30;12.35;;;18.90;44.10;;;;;;5064138;28;20395;-71
2023/09/30 09:46:09;;;;;;;25.13;11.90;;;19.40;41.00;;;;;;5063716;28;20389;-71
2023/09/30 09:48:38;;;;;;;22.67;11.80;;;19.70;38.90;;;;;;5062664;28;20472;-72
2023/09/30 09:51:07;;;;;;;24.63;11.90;;;19.80;37.50;;;;;;5063350;28;20406;-71
2023/09/30 09:53:37;;;;;;;25.75;12.20;;;20.00;36.80;;;;;;5066086;28;20536;-72
2023/09/30 09:56:07;;;;;;;16.15;9.93;;;20.20;36.30;;;;;;5064290;28;20451;-70
2023/09/30 09:58:35;;;;;;;23.30;10.60;;;20.30;35.80;;;;;;5064599;28;20401;-72
2023/09/30 10:01:05;;;;;;;21.50;9.35;;;20.30;34.70;;;;;;5062610;28;20416;-73
2023/09/30 10:03:31;;;;;;;18.77;9.48;;;19.90;34.30;;;;;;5058400;28;20385;-72
2023/09/30 10:05:58;;;;;;;20.77;10.10;;;19.70;35.20;;;;;;5053940;28;20421;-74
2023/09/30 10:08:33;;;;;;;20.10;8.98;;;19.30;35.00;;;;;;5052302;28;20385;-71
2023/09/30 10:10:59;;;;;;;17.92;8.65;;;19.10;35.60;;;;;;5050014;28;20400;-72
2023/09/30 10:13:53;;;;;;;14.93;7.30;;;19.00;35.10;;;;;;5048608;28;20389;-72
2023/09/30 10:16:37;;;;;;;14.02;6.07;;;18.90;35.30;;;;;;5031732;28;20409;-72
2023/09/30 10:19:32;;;;;;;16.50;5.82;;;18.70;34.50;;;;;;5031651;28;20398;-72
2023/09/30 10:22:19;;;;;;;12.30;5.10;;;18.50;33.30;;;;;;5015312;28;20426;-73
2023/09/30 10:24:46;;;;;;;14.70;6.22;;;18.40;33.80;;;;;;5029062;28;20486;-72
2023/09/30 10:27:24;;;;;;;20.83;6.57;;;18.50;34.30;;;;;;5030248;28;20474;-73
2023/09/30 10:30:02;;;;;;;12.98;6.57;;;18.70;34.00;;;;;;5042997;28;20389;-72
2023/09/30 10:32:59;;;;;;;14.77;5.78;;;18.80;33.50;;;;;;5049010;28;20821;-72
2023/09/30 10:35:27;;;;;;;13.02;5.25;;;19.40;30.60;;;;;;5039964;28;20400;-70
2023/09/30 10:38:33;;;;;;;16.73;4.60;;;19.60;28.00;;;;;;5048732;28;20731;-72
2023/09/30 10:41:02;;;;;;;11.07;4.90;;;20.00;26.60;;;;;;5037335;28;20528;-72
2023/09/30 10:43:37;;;;;;;12.05;4.70;;;20.20;25.50;;;;;;5054425;28;20405;-72
2023/09/30 10:46:30;;;;;;;15.32;4.68;;;20.10;25.20;;;;;;5029555;28;20826;-72
2023/09/30 10:48:57;;;;;;;11.07;5.43;;;20.40;25.50;;;;;;5038857;28;20381;-72
2023/09/30 10:51:23;;;;;;;13.13;5.40;;;20.50;25.30;;;;;;5047018;28;20408;-72
2023/09/30 10:53:56;;;;;;;10.68;5.93;;;20.40;26.00;;;;;;5049072;28;20389;-71
2023/09/30 10:56:22;;;;;;;14.38;5.50;;;20.20;27.40;;;;;;5051474;28;20447;-72
2023/09/30 10:58:49;;;;;;;13.55;5.60;;;20.00;27.40;;;;;;5055232;28;20870;-71
2023/09/30 11:01:23;;;;;;;12.77;5.20;;;20.10;28.10;;;;;;5054007;28;20424;-72
2023/09/30 11:03:51;;;;;;;13.43;5.80;;;20.10;27.70;;;;;;5058153;28;20455;-72
2023/09/30 11:06:20;;;;;;;14.35;5.32;;;20.10;27.60;;;;;;5057940;28;20389;-72
2023/09/30 11:08:59;;;;;;;12.98;5.70;;;20.50;26.80;;;;;;5060527;28;20390;-73
2023/09/30 11:11:53;;;;;;;13.73;5.40;;;20.70;26.30;;;;;;5055644;28;20462;-73
2023/09/30 11:14:27;;;;;;;14.00;5.60;;;20.80;24.90;;;;;;5051115;28;20405;-72
2023/09/30 11:16:56;;;;;;;9.40;4.47;;;21.10;23.90;;;;;;5054210;28;20472;-72
2023/09/30 11:19:22;;;;;;;12.52;5.10;;;21.10;23.20;;;;;;5053395;28;20397;-72
2023/09/30 11:21:49;;;;;;;11.35;4.97;;;20.90;23.10;;;;;;5054507;28;20822;-71
2023/09/30 11:24:15;;;;;;;14.20;4.85;;;20.70;24.50;;;;;;5055425;28;20461;-71
2023/09/30 11:26:41;;;;;;;13.32;6.50;;;20.60;26.00;;;;;;5058853;28;20949;-72
2023/09/30 11:29:17;;;;;;;11.18;5.80;;;20.50;27.10;;;;;;5059038;28;20393;-73
2023/09/30 11:31:50;;;;;;;15.57;5.47;;;20.20;27.70;;;;;;5052876;28;20901;-73
2023/09/30 11:34:17;;;;;;;15.07;6.13;;;19.90;27.50;;;;;;5050136;28;20392;-73
2023/09/30 11:36:50;;;;;;;11.93;5.13;;;19.70;27.80;;;;;;5053388;28;20390;-72
2023/09/30 11:39:27;;;;;;;12.40;5.60;;;19.80;26.80;;;;;;5050209;28;20418;-71
2023/09/30 11:41:55;;;;;;;14.65;5.28;;;19.80;27.10;;;;;;5046087;28;20413;-71
2023/09/30 11:44:20;;;;;;;10.23;4.95;;;19.80;27.00;;;;;;5048765;28;20385;-70
2023/09/30 11:47:00;;;;;;;12.05;5.03;;;19.80;27.60;;;;;;5048679;28;20436;-73
2023/09/30 11:49:27;;;;;;;14.60;4.90;;;19.80;27.60;;;;;;5051746;28;20393;-73
2023/09/30 11:51:54;;;;;;;15.38;5.70;;;19.90;28.00;;;;;;5050862;28;20403;-71
2023/09/30 11:54:19;;;;;;;14.95;5.13;;;19.70;28.10;;;;;;5051520;28;20455;-72
2023/09/30 11:56:47;;;;;;;8.48;4.88;;;19.70;28.50;;;;;;5050518;28;20401;-71
2023/09/30 11:59:13;;;;;;;13.10;5.57;;;19.90;27.20;;;;;;5051600;28;20550;-72
2023/09/30 12:01:38;;;;;;;17.20;6.23;;;19.90;27.60;;;;;;5048621;28;20433;-72
2023/09/30 12:04:04;;;;;;;11.97;5.90;;;20.00;27.10;;;;;;5043505;28;20411;-72
2023/09/30 12:06:30;;;;;;;15.93;5.50;;;20.10;27.30;;;;;;5051477;28;20393;-72
2023/09/30 12:08:57;;;;;;;11.13;4.80;;;20.50;27.00;;;;;;5069225;28;20399;-72
2023/09/30 12:11:23;;;;;;;13.40;4.60;;;20.70;26.40;;;;;;5072499;28;20385;-70
2023/09/30 12:13:49;;;;;;;12.55;4.13;;;20.80;25.80;;;;;;5074418;28;20446;-71
2023/09/30 12:16:16;;;;;;;10.70;5.00;;;21.00;25.50;;;;;;5073611;28;20475;-71
2023/09/30 12:18:41;;;;;;;11.40;4.35;;;21.10;23.90;;;;;;5069709;28;20394;-71
2023/09/30 12:21:11;;;;;;;12.50;4.40;;;21.10;23.50;;;;;;5070277;28;20408;-72
2023/09/30 12:23:40;;;;;;;10.68;4.40;;;21.20;23.20;;;;;;5068894;28;20400;-72
2023/09/30 12:26:06;;;;;;;11.60;4.70;;;21.20;23.10;;;;;;5064679;28;20382;-71
2023/09/30 12:28:34;;;;;;;9.60;4.50;;;21.30;23.40;;;;;;5067197;28;20397;-73
2023/09/30 12:31:04;;;;;;;12.57;4.70;;;21.30;23.60;;;;;;5066224;28;20389;-73
2023/09/30 12:33:31;;;;;;;15.02;5.65;;;21.30;23.70;;;;;;5066495;28;20377;-70